createdAt,value
2019-03-18T00:00:10.711Z,8.48
2019-03-18T00:05:19.609Z,5.05
2019-03-18T00:10:28.525Z,9.87
2019-03-18T00:15:37.442Z,9.91
2019-03-18T00:20:46.345Z,7.50
2019-03-18T00:25:55.216Z,8.82
2019-03-18T00:31:04.105Z,6.60
2019-03-18T00:36:12.999Z,7.74
2019-03-18T00:41:21.942Z,8.56
2019-03-18T00:46:30.858Z,7.56
2019-03-18T00:51:39.827Z,11.38
2019-03-18T00:56:48.715Z,10.60
2019-03-18T01:01:57.619Z,12.45
2019-03-18T01:07:06.502Z,9.37
2019-03-18T01:12:15.360Z,14.37
2019-03-18T01:17:24.283Z,14.65
2019-03-18T01:22:33.265Z,16.02
2019-03-18T01:27:42.222Z,18.69
2019-03-18T01:32:51.265Z,14.99
2019-03-18T01:38:00.104Z,28.10
2019-03-18T01:43:08.996Z,12.37
2019-03-18T01:48:17.888Z,14.48
2019-03-18T01:53:26.836Z,12.27
2019-03-18T01:58:35.785Z,17.69
2019-03-18T02:03:44.744Z,18.30
2019-03-18T02:08:53.627Z,14.02
2019-03-18T02:14:02.599Z,21.23
2019-03-18T02:19:11.472Z,14.04
2019-03-18T02:24:20.401Z,21.29
2019-03-18T02:29:29.330Z,16.43
2019-03-18T02:34:38.274Z,13.27
2019-03-18T02:39:47.140Z,18.23
2019-03-18T02:44:56.067Z,18.48
2019-03-18T02:50:04.935Z,18.40
2019-03-18T02:55:13.907Z,14.30
2019-03-18T03:00:22.782Z,15.46
2019-03-18T03:05:31.719Z,16.82
2019-03-18T03:10:40.595Z,15.04
2019-03-18T03:15:49.548Z,17.01
2019-03-18T03:20:58.450Z,14.47
2019-03-18T03:26:07.331Z,14.20
2019-03-18T03:31:16.250Z,20.68
2019-03-18T03:36:25.087Z,20.87
2019-03-18T03:41:34.085Z,15.17
2019-03-18T03:46:44.080Z,16.25
2019-03-18T03:51:51.364Z,22.54
2019-03-18T03:57:00.391Z,23.58
2019-03-18T04:02:09.246Z,21.70
2019-03-18T04:07:18.227Z,24.45
2019-03-18T04:12:27.122Z,25.02
2019-03-18T04:17:36.032Z,19.51
2019-03-18T04:22:44.941Z,24.26
2019-03-18T04:27:53.798Z,23.82
2019-03-18T04:33:02.645Z,20.53
2019-03-18T04:38:11.596Z,17.80
2019-03-18T04:43:20.500Z,19.69
2019-03-18T04:48:29.442Z,21.19
2019-03-18T04:53:38.311Z,19.95
2019-03-18T04:58:47.243Z,15.52
2019-03-18T05:03:56.144Z,14.38
2019-03-18T05:09:05.045Z,13.86
2019-03-18T05:14:13.889Z,12.46
2019-03-18T05:19:22.804Z,14.14
2019-03-18T05:24:31.671Z,12.38
2019-03-18T05:29:40.565Z,14.09
2019-03-18T05:34:49.426Z,14.42
2019-03-18T05:39:58.364Z,31.23
2019-03-18T05:45:07.296Z,20.61
2019-03-18T05:50:16.220Z,17.62
2019-03-18T05:55:25.128Z,18.56
2019-03-18T06:00:34.013Z,22.93
2019-03-18T06:05:42.967Z,55.36
2019-03-18T06:10:51.839Z,31.23
2019-03-18T06:16:00.733Z,22.46
2019-03-18T06:21:09.602Z,21.26
2019-03-18T06:26:18.513Z,23.91
2019-03-18T06:31:27.395Z,19.31
2019-03-18T06:36:36.292Z,21.90
2019-03-18T06:41:45.203Z,25.91
2019-03-18T06:46:54.099Z,23.10
2019-03-18T06:52:03.009Z,20.78
2019-03-18T06:57:11.982Z,22.25
2019-03-18T07:02:20.859Z,19.61
2019-03-18T07:07:29.771Z,30.32
2019-03-18T07:12:38.642Z,20.17
2019-03-18T07:17:47.548Z,26.65
2019-03-18T07:22:56.409Z,23.62
2019-03-18T07:28:05.329Z,22.60
2019-03-18T07:33:14.198Z,21.58
2019-03-18T07:38:23.079Z,23.74
2019-03-18T07:43:32.007Z,23.05
2019-03-18T07:48:40.903Z,20.87
2019-03-18T07:53:49.889Z,22.35
2019-03-18T07:58:58.781Z,18.28
2019-03-18T08:04:07.656Z,15.51
2019-03-18T08:09:16.529Z,13.23
2019-03-18T08:14:25.423Z,11.86
2019-03-18T08:19:34.343Z,17.45
2019-03-18T08:24:43.206Z,15.19
2019-03-18T08:29:52.084Z,19.24
2019-03-18T08:35:01.034Z,21.99
2019-03-18T08:40:09.930Z,16.47
2019-03-18T08:45:18.840Z,34.42
2019-03-18T08:50:27.748Z,28.33
2019-03-18T08:55:36.652Z,25.10
2019-03-18T09:00:45.505Z,24.63
2019-03-18T09:05:54.443Z,21.44
2019-03-18T09:11:03.341Z,28.33
2019-03-18T09:16:12.307Z,26.86
2019-03-18T09:21:21.196Z,22.25
2019-03-18T09:26:30.093Z,19.18
2019-03-18T09:31:38.976Z,17.91
2019-03-18T09:36:47.868Z,16.76
2019-03-18T09:41:56.762Z,17.86
2019-03-18T09:47:05.669Z,27.80
2019-03-18T09:52:14.605Z,24.32
2019-03-18T09:57:26.276Z,17.88
2019-03-18T10:02:31.925Z,23.63
2019-03-18T10:07:40.808Z,27.32
2019-03-18T10:12:49.686Z,24.06
2019-03-18T10:17:58.567Z,17.71
2019-03-18T10:23:07.460Z,22.20
2019-03-18T10:28:16.617Z,19.16
2019-03-18T10:33:24.739Z,21.60
2019-03-18T10:38:33.599Z,20.28
2019-03-18T10:43:42.492Z,17.30
2019-03-18T10:48:51.363Z,18.04
2019-03-18T10:54:00.319Z,18.47
2019-03-18T10:59:09.138Z,14.99
2019-03-18T11:04:18.023Z,13.59
2019-03-18T11:09:26.903Z,14.49
2019-03-18T11:14:35.812Z,16.66
2019-03-18T11:19:44.699Z,16.68
2019-03-18T11:24:53.607Z,18.84
2019-03-18T11:30:02.500Z,16.98
2019-03-18T11:35:11.495Z,12.83
2019-03-18T11:40:20.350Z,13.73
2019-03-18T11:45:29.257Z,12.74
2019-03-18T11:50:38.160Z,9.66
2019-03-18T11:55:47.055Z,10.41
2019-03-18T12:00:56.011Z,10.19
2019-03-18T12:06:04.928Z,10.75
2019-03-18T12:11:13.797Z,10.21
2019-03-18T12:16:22.693Z,10.72
2019-03-18T12:21:31.561Z,11.68
2019-03-18T12:26:40.428Z,13.74
2019-03-18T12:31:49.312Z,10.16
2019-03-18T12:36:58.180Z,10.64
2019-03-18T12:42:07.068Z,12.15
2019-03-18T12:47:15.934Z,12.50
2019-03-18T12:52:24.849Z,15.56
2019-03-18T12:57:33.737Z,15.71
2019-03-18T13:02:42.667Z,13.18
2019-03-18T13:07:51.557Z,15.05
2019-03-18T13:13:00.439Z,18.15
2019-03-18T13:18:09.281Z,17.61
2019-03-18T13:23:18.152Z,13.13
2019-03-18T13:28:27.034Z,13.21
2019-03-18T13:33:35.943Z,10.08
2019-03-18T13:38:44.824Z,11.38
2019-03-18T13:43:53.702Z,13.50
2019-03-18T13:49:02.596Z,10.77
2019-03-18T13:54:11.555Z,12.17
2019-03-18T13:59:20.443Z,11.18
2019-03-18T14:04:29.332Z,11.30
2019-03-18T14:09:38.233Z,13.20
2019-03-18T14:14:47.084Z,11.48
2019-03-18T14:19:55.962Z,13.74
2019-03-18T14:25:04.843Z,17.18
2019-03-18T14:30:13.737Z,13.83
2019-03-18T14:35:22.659Z,16.92
2019-03-18T14:40:31.529Z,12.65
2019-03-18T14:45:40.431Z,15.34
2019-03-18T14:50:49.301Z,16.43
2019-03-18T14:55:58.166Z,25.52
2019-03-18T15:01:07.032Z,23.39
2019-03-18T15:06:15.927Z,19.74
2019-03-18T15:11:24.893Z,16.29
2019-03-18T15:16:33.740Z,13.30
2019-03-18T15:21:42.620Z,16.77
2019-03-18T15:26:51.519Z,16.81
2019-03-18T15:32:00.467Z,17.19
2019-03-18T15:37:09.338Z,17.22
2019-03-18T15:42:18.269Z,13.47
2019-03-18T15:47:27.145Z,15.94
2019-03-18T15:52:36.018Z,19.29
2019-03-18T15:57:44.891Z,10.37
2019-03-18T16:02:53.750Z,15.79
2019-03-18T16:08:02.625Z,14.29
2019-03-18T16:13:11.566Z,17.81
2019-03-18T16:18:20.451Z,13.90
2019-03-18T16:23:29.427Z,13.18
2019-03-18T16:28:38.330Z,13.06
2019-03-18T16:33:47.220Z,14.09
2019-03-18T16:38:56.101Z,10.38
2019-03-18T16:44:04.987Z,13.99
2019-03-18T16:49:13.851Z,11.34
2019-03-18T16:54:22.749Z,19.34
2019-03-18T16:59:31.655Z,23.27
2019-03-18T17:04:40.673Z,24.00
2019-03-18T17:09:49.591Z,24.30
2019-03-18T17:14:58.578Z,18.64
2019-03-18T17:20:07.467Z,27.69
2019-03-18T17:25:16.441Z,20.64
2019-03-18T17:30:26.655Z,12.07
2019-03-18T17:35:33.773Z,16.06
2019-03-18T17:40:42.647Z,14.88
2019-03-18T17:45:51.552Z,14.82
2019-03-18T17:51:00.438Z,11.96
2019-03-18T17:56:09.351Z,13.72
2019-03-18T18:01:18.213Z,14.79
2019-03-18T18:06:27.103Z,16.28
2019-03-18T18:11:36.003Z,13.58
2019-03-18T18:16:44.945Z,14.40
2019-03-18T18:21:53.830Z,11.69
2019-03-18T18:27:02.793Z,13.62
2019-03-18T18:32:11.649Z,13.81
2019-03-18T18:37:20.520Z,15.85
2019-03-18T18:42:29.390Z,16.45
2019-03-18T18:47:38.252Z,14.99
2019-03-18T18:52:47.163Z,13.74
2019-03-18T18:57:56.048Z,13.46
2019-03-18T19:03:04.985Z,16.06
2019-03-18T19:08:13.871Z,16.59
2019-03-18T19:13:22.802Z,12.93
2019-03-18T19:18:37.738Z,17.64
2019-03-18T19:23:40.116Z,14.27
2019-03-18T19:28:49.015Z,16.63
2019-03-18T19:33:57.956Z,16.27
2019-03-18T19:39:06.816Z,14.44
2019-03-18T19:44:15.739Z,16.35
2019-03-18T19:49:24.661Z,13.54
2019-03-18T19:54:33.561Z,17.00
2019-03-18T19:59:42.432Z,12.00
2019-03-18T20:04:51.388Z,12.70
2019-03-18T20:10:00.466Z,13.42
2019-03-18T20:15:08.795Z,15.54
2019-03-18T20:20:17.696Z,13.38
2019-03-18T20:25:26.659Z,11.88
2019-03-18T20:30:35.517Z,12.05
2019-03-18T20:35:44.397Z,13.34
2019-03-18T20:40:53.292Z,11.90
2019-03-18T20:46:02.228Z,15.97
2019-03-18T20:56:14.753Z,14.37
2019-03-18T21:01:23.675Z,12.44
2019-03-18T21:06:32.536Z,16.45
2019-03-18T21:11:41.437Z,13.92
2019-03-18T21:16:50.296Z,11.10
2019-03-18T21:21:59.184Z,12.99
2019-03-18T21:27:08.081Z,11.77
2019-03-18T21:32:16.933Z,14.28
2019-03-18T21:37:25.880Z,12.83
2019-03-18T21:42:34.763Z,22.16
2019-03-18T21:47:43.718Z,26.41
2019-03-18T21:52:52.633Z,24.21
2019-03-18T21:58:01.528Z,21.81
2019-03-18T22:03:10.379Z,25.65
2019-03-18T22:08:19.359Z,20.93
2019-03-18T22:13:28.275Z,22.35
2019-03-18T22:18:37.179Z,24.50
2019-03-18T22:23:46.016Z,24.93
2019-03-18T22:28:54.945Z,22.29
2019-03-18T22:34:03.806Z,20.66
2019-03-18T22:39:12.712Z,22.27
2019-03-18T22:44:21.622Z,20.61
2019-03-18T22:49:30.767Z,23.80
2019-03-18T22:54:39.646Z,19.19
2019-03-18T22:59:48.582Z,19.09
2019-03-18T23:04:57.428Z,23.20
2019-03-18T23:10:06.359Z,21.24
2019-03-18T23:15:15.241Z,20.00
2019-03-18T23:20:24.136Z,19.11
2019-03-18T23:25:33.053Z,21.78
2019-03-18T23:30:41.968Z,22.21
2019-03-18T23:35:50.904Z,21.65
2019-03-18T23:40:59.752Z,18.26
2019-03-18T23:46:08.683Z,16.24
2019-03-18T23:51:17.534Z,17.49
2019-03-18T23:56:26.437Z,23.60
